createdAt,value
2022-12-31T00:00:22.033Z,5.97
2022-12-31T00:02:22.146Z,5.9
2022-12-31T00:04:22.035Z,5.89
2022-12-31T00:06:21.948Z,6.01
2022-12-31T00:08:21.913Z,6.03
2022-12-31T00:10:21.954Z,5.95
2022-12-31T00:12:21.958Z,5.97
2022-12-31T00:15:36.216Z,6.01
2022-12-31T00:17:36.304Z,5.99
2022-12-31T00:19:36.185Z,5.98
2022-12-31T00:21:36.468Z,5.78
2022-12-31T00:23:36.434Z,5.75
2022-12-31T00:25:36.411Z,5.73
2022-12-31T00:27:36.587Z,5.72
2022-12-31T00:30:41.118Z,5.46
2022-12-31T00:32:41.058Z,5.03
2022-12-31T00:34:40.951Z,4.82
2022-12-31T00:36:41.025Z,4.91
2022-12-31T00:38:41.015Z,5.13
2022-12-31T00:40:41.050Z,5.13
2022-12-31T00:42:40.951Z,5.34
2022-12-31T00:46:04.050Z,5.37
2022-12-31T00:48:04.120Z,5.42
2022-12-31T00:50:03.974Z,5.41
2022-12-31T00:52:04.311Z,5.38
2022-12-31T00:54:03.981Z,5.3
2022-12-31T00:56:04.250Z,5.26
2022-12-31T00:58:04.024Z,5.12
2022-12-31T01:01:01.580Z,5.13
2022-12-31T01:03:01.666Z,5.13
2022-12-31T01:05:01.513Z,5.1
2022-12-31T01:07:01.510Z,5.1
2022-12-31T01:09:01.661Z,5.03
2022-12-31T01:11:01.621Z,4.97
2022-12-31T01:13:01.540Z,4.96
2022-12-31T01:15:01.569Z,4.91
2022-12-31T01:16:42.642Z,4.85
2022-12-31T01:18:42.603Z,4.84
2022-12-31T01:20:42.614Z,4.85
2022-12-31T01:22:42.605Z,4.82
2022-12-31T01:24:42.711Z,4.86
2022-12-31T01:26:42.596Z,4.79
2022-12-31T01:28:42.626Z,4.76
2022-12-31T01:31:57.514Z,4.79
2022-12-31T01:33:57.497Z,4.71
2022-12-31T01:35:57.480Z,4.71
2022-12-31T01:37:57.543Z,4.69
2022-12-31T01:39:57.635Z,4.66
2022-12-31T01:41:57.565Z,4.71
2022-12-31T01:43:57.540Z,4.69
2022-12-31T01:46:52.817Z,4.68
2022-12-31T01:48:52.783Z,4.68
2022-12-31T01:50:52.823Z,4.58
2022-12-31T01:52:52.785Z,4.61
2022-12-31T01:54:52.806Z,4.63
2022-12-31T01:56:52.858Z,4.6
2022-12-31T01:58:52.794Z,4.58
2022-12-31T02:02:00.672Z,4.56
2022-12-31T02:04:00.552Z,4.57
2022-12-31T02:06:00.629Z,4.53
2022-12-31T02:08:00.597Z,4.51
2022-12-31T02:10:00.566Z,4.51
2022-12-31T02:12:00.640Z,4.54
2022-12-31T02:14:00.559Z,4.49
2022-12-31T02:17:35.656Z,4.5
2022-12-31T02:19:35.544Z,4.5
2022-12-31T02:21:35.546Z,4.5
2022-12-31T02:23:35.498Z,4.48
2022-12-31T02:25:35.547Z,4.51
2022-12-31T02:27:35.580Z,4.48
2022-12-31T02:29:35.628Z,4.54
2022-12-31T02:32:22.787Z,4.48
2022-12-31T02:34:22.837Z,4.44
2022-12-31T02:36:22.779Z,4.46
2022-12-31T02:38:22.754Z,4.49
2022-12-31T02:40:22.743Z,4.48
2022-12-31T02:42:22.860Z,4.45
2022-12-31T02:44:22.758Z,4.45
2022-12-31T02:47:57.880Z,4.4
2022-12-31T02:49:57.897Z,4.41
2022-12-31T02:51:57.864Z,4.48
2022-12-31T02:53:57.888Z,4.41
2022-12-31T02:55:57.889Z,4.34
2022-12-31T02:57:57.934Z,4.25
2022-12-31T02:59:57.912Z,4.26
2022-12-31T03:02:27.620Z,4.23
2022-12-31T03:04:27.542Z,4.16
2022-12-31T03:06:27.524Z,4.06
2022-12-31T03:08:27.494Z,3.93
2022-12-31T03:10:27.528Z,4.01
2022-12-31T03:12:27.535Z,3.97
2022-12-31T03:14:27.505Z,4.03
2022-12-31T03:17:49.314Z,3.81
2022-12-31T03:19:49.342Z,3.86
2022-12-31T03:21:49.274Z,3.87
2022-12-31T03:23:49.273Z,3.83
2022-12-31T03:25:49.316Z,3.86
2022-12-31T03:27:49.271Z,3.85
2022-12-31T03:29:49.275Z,3.83
2022-12-31T03:32:53.868Z,3.53
2022-12-31T03:34:53.888Z,3.61
2022-12-31T03:36:53.836Z,3.72
2022-12-31T03:38:53.843Z,3.76
2022-12-31T03:40:53.864Z,3.71
2022-12-31T03:42:53.833Z,3.69
2022-12-31T03:44:53.866Z,3.67
2022-12-31T03:48:29.693Z,3.48
2022-12-31T03:50:29.669Z,3.58
2022-12-31T03:52:29.644Z,3.55
2022-12-31T03:54:29.667Z,3.59
2022-12-31T03:56:29.686Z,3.53
2022-12-31T03:58:29.681Z,3.42
2022-12-31T04:00:29.642Z,3.46
2022-12-31T04:03:29.532Z,3.51
2022-12-31T04:05:29.546Z,3.46
2022-12-31T04:07:29.545Z,3.33
2022-12-31T04:09:29.584Z,3.23
2022-12-31T04:11:29.521Z,3.28
2022-12-31T04:13:29.554Z,3.32
2022-12-31T04:15:29.561Z,3.55
2022-12-31T04:18:16.261Z,3.6
2022-12-31T04:20:16.522Z,3.66
2022-12-31T04:22:16.306Z,3.55
2022-12-31T04:24:16.291Z,3.65
2022-12-31T04:26:16.277Z,3.7
2022-12-31T04:28:16.301Z,3.81
2022-12-31T04:30:16.239Z,3.76
2022-12-31T04:33:56.513Z,3.78
2022-12-31T04:35:56.503Z,3.59
2022-12-31T04:37:56.638Z,3.28
2022-12-31T04:40:00.401Z,3.2
2022-12-31T04:41:56.504Z,3.59
2022-12-31T04:43:56.532Z,3.8
2022-12-31T04:45:56.521Z,3.95
2022-12-31T04:48:37.851Z,4.09
2022-12-31T04:50:37.867Z,4.05
2022-12-31T04:52:42.286Z,4.05
2022-12-31T04:54:37.903Z,4.03
2022-12-31T04:56:37.855Z,4.06
2022-12-31T04:58:37.845Z,3.93
2022-12-31T05:00:37.852Z,4.04
2022-12-31T05:04:19.845Z,3.9
2022-12-31T05:06:19.835Z,3.88
2022-12-31T05:08:19.851Z,3.73
2022-12-31T05:10:19.878Z,3.67
2022-12-31T05:12:19.823Z,3.9
2022-12-31T05:14:19.788Z,4.07
2022-12-31T05:16:19.906Z,4.02
2022-12-31T05:19:33.812Z,4.11
2022-12-31T05:21:33.818Z,3.93
2022-12-31T05:23:33.791Z,4.07
2022-12-31T05:25:33.885Z,4.21
2022-12-31T05:27:33.825Z,4.26
2022-12-31T05:29:33.831Z,4.22
2022-12-31T05:31:33.805Z,4.32
2022-12-31T05:34:56.512Z,4.38
2022-12-31T05:36:56.472Z,4.43
2022-12-31T05:38:56.510Z,4.3
2022-12-31T05:40:56.565Z,4.43
2022-12-31T05:42:56.484Z,4.41
2022-12-31T05:44:56.518Z,4.35
2022-12-31T05:46:56.458Z,4.13
2022-12-31T05:50:05.408Z,3.73
2022-12-31T05:52:05.404Z,3.7
2022-12-31T05:54:05.546Z,3.59
2022-12-31T05:56:05.480Z,3.64
2022-12-31T05:58:05.469Z,3.7
2022-12-31T06:00:05.412Z,3.86
2022-12-31T06:02:05.385Z,3.92
2022-12-31T06:05:25.797Z,3.89
2022-12-31T06:07:20.260Z,3.87
2022-12-31T06:09:20.247Z,3.86
2022-12-31T06:11:20.324Z,3.8
2022-12-31T06:13:20.254Z,3.77
2022-12-31T06:15:20.246Z,3.74
2022-12-31T06:17:20.255Z,3.75
2022-12-31T06:19:41.999Z,3.8
2022-12-31T06:21:41.973Z,3.79
2022-12-31T06:23:42.019Z,3.52
2022-12-31T06:25:41.994Z,3.09
2022-12-31T06:27:42.263Z,3.1
2022-12-31T06:29:41.997Z,3.18
2022-12-31T06:31:41.997Z,3.29
2022-12-31T06:34:54.339Z,3.71
2022-12-31T06:36:54.367Z,3.78
2022-12-31T06:38:54.363Z,3.88
2022-12-31T06:40:54.333Z,3.78
2022-12-31T06:42:59.632Z,3.72
2022-12-31T06:44:54.380Z,3.92
2022-12-31T06:46:54.381Z,4
2022-12-31T06:50:02.045Z,3.65
2022-12-31T06:52:02.081Z,3.67
2022-12-31T06:54:02.023Z,3.84
2022-12-31T06:56:02.028Z,4
2022-12-31T06:58:02.085Z,4.03
2022-12-31T07:00:02.100Z,4.08
2022-12-31T07:02:02.085Z,4.09
2022-12-31T07:05:18.158Z,4.1
2022-12-31T07:07:17.963Z,4.28
2022-12-31T07:09:17.910Z,4.4
2022-12-31T07:11:17.982Z,4.18
2022-12-31T07:13:18.089Z,4.18
2022-12-31T07:15:17.928Z,4.17
2022-12-31T07:17:17.909Z,4.18
2022-12-31T07:20:16.992Z,4.17
2022-12-31T07:22:16.956Z,4.41
2022-12-31T07:24:16.961Z,4.61
2022-12-31T07:26:16.925Z,4.56
2022-12-31T07:28:16.960Z,4.22
2022-12-31T07:30:16.973Z,4.25
2022-12-31T07:32:16.938Z,4.16
2022-12-31T07:34:16.943Z,4.02
2022-12-31T07:36:07.914Z,4.07
2022-12-31T07:38:07.976Z,4.07
2022-12-31T07:40:07.949Z,4
2022-12-31T07:42:07.958Z,3.97
2022-12-31T07:44:07.945Z,4.07
2022-12-31T07:46:07.974Z,4.2
2022-12-31T07:48:07.879Z,4.35
2022-12-31T07:50:50.224Z,4.35
2022-12-31T07:52:50.711Z,4.49
2022-12-31T07:54:50.188Z,4.49
2022-12-31T07:56:50.162Z,4.63
2022-12-31T07:58:50.163Z,4.48
2022-12-31T08:00:50.651Z,4.43
2022-12-31T08:02:50.329Z,4.24
2022-12-31T08:06:22.548Z,4.33
2022-12-31T08:08:22.658Z,4.47
2022-12-31T08:10:22.575Z,4.79
2022-12-31T08:12:22.523Z,4.85
2022-12-31T08:14:22.614Z,4.86
2022-12-31T08:16:22.575Z,4.77
2022-12-31T08:18:22.608Z,5.1
2022-12-31T08:21:00.591Z,5.3
2022-12-31T08:23:00.589Z,5.39
2022-12-31T08:25:00.563Z,5.4
2022-12-31T08:27:00.602Z,5.93
2022-12-31T08:29:00.570Z,6.25
2022-12-31T08:31:00.572Z,6.41
2022-12-31T08:33:00.625Z,6.39
2022-12-31T08:36:41.060Z,5.85
2022-12-31T08:38:41.045Z,5.87
2022-12-31T08:40:41.039Z,5.94
2022-12-31T08:42:41.023Z,5.72
2022-12-31T08:44:41.110Z,5.79
2022-12-31T08:46:41.031Z,6
2022-12-31T08:48:41.043Z,5.93
2022-12-31T08:52:06.686Z,6.09
2022-12-31T08:54:06.705Z,6.07
2022-12-31T08:56:06.670Z,6.06
2022-12-31T08:58:06.672Z,6.16
2022-12-31T09:00:06.666Z,6.49
2022-12-31T09:02:06.733Z,6.41
2022-12-31T09:04:06.714Z,6.7
2022-12-31T09:07:07.158Z,7.08
2022-12-31T09:09:07.187Z,7.21
2022-12-31T09:11:07.169Z,7.13
2022-12-31T09:13:07.147Z,7.07
2022-12-31T09:15:07.192Z,7.27
2022-12-31T09:17:07.155Z,7.35
2022-12-31T09:19:07.165Z,7.56
2022-12-31T09:22:07.084Z,7.56
2022-12-31T09:24:09.442Z,7.58
2022-12-31T09:26:07.107Z,7.6
2022-12-31T09:28:07.086Z,7.75
2022-12-31T09:30:07.073Z,7.56
2022-12-31T09:32:07.055Z,7.48
2022-12-31T09:34:07.108Z,7.8
2022-12-31T09:37:37.246Z,8.2
2022-12-31T09:39:37.215Z,8.44
2022-12-31T09:41:37.441Z,8.61
2022-12-31T09:43:37.479Z,8.11
2022-12-31T09:45:37.225Z,8.18
2022-12-31T09:47:37.218Z,8.18
2022-12-31T09:49:37.255Z,8.46
2022-12-31T09:51:55.741Z,8.31
2022-12-31T09:53:55.782Z,8.6
2022-12-31T09:55:55.757Z,8.55
2022-12-31T09:57:55.775Z,8.85
2022-12-31T09:59:55.845Z,8.87
2022-12-31T10:01:55.789Z,8.76
2022-12-31T10:03:55.828Z,8.74
2022-12-31T10:05:55.750Z,9.05
2022-12-31T10:07:16.285Z,9.22
2022-12-31T10:09:16.350Z,9.39
2022-12-31T10:11:16.267Z,9.45
2022-12-31T10:13:16.298Z,9.15
2022-12-31T10:15:16.275Z,9.42
2022-12-31T10:17:16.291Z,9.52
2022-12-31T10:19:16.265Z,9.63
2022-12-31T10:22:14.875Z,9.78
2022-12-31T10:24:14.895Z,10.13
2022-12-31T10:26:14.904Z,10.46
2022-12-31T10:28:14.857Z,10.44
2022-12-31T10:30:14.904Z,10.15
2022-12-31T10:32:14.894Z,10.33
2022-12-31T10:34:14.853Z,10.41
2022-12-31T10:36:14.910Z,10.27
2022-12-31T10:38:17.297Z,10.17
2022-12-31T10:40:17.297Z,10.48
2022-12-31T10:42:17.246Z,10.15
2022-12-31T10:44:17.318Z,10.27
2022-12-31T10:46:22.531Z,10.34
2022-12-31T10:48:17.281Z,10.42
2022-12-31T10:50:17.301Z,10.74
2022-12-31T10:52:50.413Z,11
2022-12-31T10:54:50.368Z,10.64
2022-12-31T10:56:50.366Z,10.7
2022-12-31T10:58:50.436Z,10.97
2022-12-31T11:00:50.386Z,11.11
2022-12-31T11:02:50.479Z,11.17
2022-12-31T11:04:50.359Z,11.34
2022-12-31T11:08:16.411Z,11.2
2022-12-31T11:10:16.520Z,11.18
2022-12-31T11:12:16.425Z,11.17
2022-12-31T11:14:16.440Z,11.3
2022-12-31T11:16:16.492Z,11.41
2022-12-31T11:18:16.479Z,11.69
2022-12-31T11:20:16.397Z,11.75
2022-12-31T11:23:30.852Z,11.64
2022-12-31T11:25:30.806Z,11.74
2022-12-31T11:27:30.836Z,11.79
2022-12-31T11:29:30.786Z,11.99
2022-12-31T11:31:30.926Z,12.04
2022-12-31T11:33:30.856Z,12.43
2022-12-31T11:35:30.800Z,12.15
2022-12-31T11:38:53.489Z,12.14
2022-12-31T11:40:53.420Z,12.31
2022-12-31T11:42:53.513Z,12.4
2022-12-31T11:44:53.507Z,12.37
2022-12-31T11:46:53.405Z,12.53
2022-12-31T11:48:53.488Z,12.82
2022-12-31T11:50:53.418Z,12.91
2022-12-31T11:53:47.484Z,13.09
2022-12-31T11:55:47.482Z,13.21
2022-12-31T11:57:47.474Z,13.3
2022-12-31T11:59:47.479Z,13.38
2022-12-31T12:01:47.440Z,13.48
2022-12-31T12:03:47.566Z,13.53
2022-12-31T12:05:47.476Z,13.58
2022-12-31T12:09:01.340Z,13.61
2022-12-31T12:11:01.336Z,13.62
2022-12-31T12:13:01.394Z,13.58
2022-12-31T12:15:01.349Z,13.57
2022-12-31T12:17:05.001Z,13.48
2022-12-31T12:19:01.313Z,13.56
2022-12-31T12:21:01.353Z,13.59
2022-12-31T12:24:20.864Z,13.6
2022-12-31T12:26:20.859Z,13.6
2022-12-31T12:28:20.830Z,13.71
2022-12-31T12:30:20.862Z,13.76
2022-12-31T12:32:20.895Z,13.67
2022-12-31T12:34:20.835Z,13.63
2022-12-31T12:36:20.888Z,13.61
2022-12-31T12:39:42.883Z,13.58
2022-12-31T12:41:42.830Z,13.64
2022-12-31T12:43:42.882Z,13.57
2022-12-31T12:45:43.618Z,13.54
2022-12-31T12:47:42.860Z,13.51
2022-12-31T12:49:42.822Z,13.47
2022-12-31T12:51:42.952Z,13.43
2022-12-31T12:54:09.407Z,13.4
2022-12-31T12:56:10.321Z,13.36
2022-12-31T12:58:11.707Z,13.32
2022-12-31T13:00:09.460Z,13.35
2022-12-31T13:02:09.458Z,13.32
2022-12-31T13:06:09.359Z,13.16
2022-12-31T13:09:35.173Z,13.13
2022-12-31T13:11:35.146Z,13.02
2022-12-31T13:13:35.199Z,12.91
2022-12-31T13:15:35.245Z,12.78
2022-12-31T13:17:35.175Z,12.6
2022-12-31T13:19:35.192Z,12.59
2022-12-31T13:21:35.166Z,12.48
2022-12-31T13:24:32.734Z,12.42
2022-12-31T13:26:32.779Z,12.41
2022-12-31T13:28:32.746Z,12.31
2022-12-31T13:30:32.690Z,12.23
2022-12-31T13:32:32.704Z,12.17
2022-12-31T13:34:32.748Z,12.09
2022-12-31T13:36:32.776Z,12.02
2022-12-31T13:39:50.867Z,11.95
2022-12-31T13:41:50.910Z,11.79
2022-12-31T13:43:51.267Z,11.71
2022-12-31T13:45:50.873Z,11.64
2022-12-31T13:47:50.855Z,11.58
2022-12-31T13:49:50.839Z,11.4
2022-12-31T13:51:50.835Z,11.33
2022-12-31T13:54:40.098Z,11.35
2022-12-31T13:56:40.067Z,11.27
2022-12-31T13:58:40.134Z,11.15
2022-12-31T14:00:40.141Z,11.2
2022-12-31T14:02:40.167Z,11.07
2022-12-31T14:04:40.067Z,10.95
2022-12-31T14:06:40.412Z,10.87
2022-12-31T14:08:40.287Z,10.79
2022-12-31T14:10:31.222Z,10.81
2022-12-31T14:12:31.269Z,10.78
2022-12-31T14:14:31.144Z,10.72
2022-12-31T14:16:31.211Z,10.65
2022-12-31T14:18:31.372Z,10.63
2022-12-31T14:20:31.182Z,10.57
2022-12-31T14:22:31.107Z,10.5
2022-12-31T14:25:26.399Z,10.4
2022-12-31T14:27:26.367Z,10.38
2022-12-31T14:29:26.344Z,10.35
2022-12-31T14:31:26.503Z,10.28
2022-12-31T14:33:26.368Z,10.23
2022-12-31T14:35:26.311Z,10.15
2022-12-31T14:37:26.365Z,10.11
2022-12-31T14:40:27.344Z,9.95
2022-12-31T14:42:27.371Z,9.87
2022-12-31T14:44:27.330Z,9.74
2022-12-31T14:46:27.403Z,9.7
2022-12-31T14:48:27.371Z,9.72
2022-12-31T14:50:27.333Z,9.7
2022-12-31T14:52:27.440Z,9.64
2022-12-31T14:55:15.704Z,9.4
2022-12-31T14:57:15.723Z,9.38
2022-12-31T14:59:15.715Z,9.32
2022-12-31T15:01:15.790Z,9.27
2022-12-31T15:03:15.732Z,9.15
2022-12-31T15:05:15.691Z,9.1
2022-12-31T15:07:15.705Z,9.07
2022-12-31T15:09:15.670Z,8.91
2022-12-31T15:10:46.864Z,9.03
2022-12-31T15:12:46.955Z,8.93
2022-12-31T15:14:46.904Z,8.83
2022-12-31T15:16:46.935Z,8.65
2022-12-31T15:18:46.840Z,8.55
2022-12-31T15:20:46.868Z,8.68
2022-12-31T15:22:47.009Z,8.58
2022-12-31T15:26:15.240Z,8.49
2022-12-31T15:28:15.286Z,8.46
2022-12-31T15:30:15.372Z,8.49
2022-12-31T15:32:15.278Z,8.52
2022-12-31T15:34:15.290Z,8.47
2022-12-31T15:36:15.311Z,8.3
2022-12-31T15:38:15.265Z,8.3
2022-12-31T15:41:13.747Z,8.31
2022-12-31T15:43:13.702Z,8.23
2022-12-31T15:45:13.745Z,8.26
2022-12-31T15:47:13.815Z,8.2
2022-12-31T15:49:15.957Z,8.2
2022-12-31T15:51:13.769Z,8.04
2022-12-31T15:53:13.766Z,8
2022-12-31T15:55:58.836Z,7.97
2022-12-31T15:57:58.803Z,7.92
2022-12-31T15:59:58.947Z,7.92
2022-12-31T16:01:58.949Z,7.81
2022-12-31T16:03:58.754Z,7.62
2022-12-31T16:05:58.759Z,7.71
2022-12-31T16:07:58.834Z,7.68
2022-12-31T16:09:58.897Z,7.63
2022-12-31T16:11:22.162Z,7.64
2022-12-31T16:13:22.206Z,7.65
2022-12-31T16:15:22.198Z,7.6
2022-12-31T16:17:22.172Z,7.69
2022-12-31T16:19:22.174Z,7.59
2022-12-31T16:21:22.215Z,7.58
2022-12-31T16:23:22.159Z,7.55
2022-12-31T16:27:08.001Z,7.55
2022-12-31T16:29:07.766Z,7.64
2022-12-31T16:31:07.852Z,7.42
2022-12-31T16:33:07.805Z,7.48
2022-12-31T16:35:15.088Z,7.38
2022-12-31T16:37:07.774Z,7.38
2022-12-31T16:39:07.771Z,7.37
2022-12-31T16:41:27.224Z,7.3
2022-12-31T16:43:27.373Z,7.38
2022-12-31T16:45:27.231Z,7.42
2022-12-31T16:47:27.273Z,7.26
2022-12-31T16:49:27.251Z,7.2
2022-12-31T16:51:27.225Z,7.28
2022-12-31T16:53:27.316Z,7.27
2022-12-31T16:55:27.296Z,7.22
2022-12-31T16:57:33.048Z,7.09
2022-12-31T16:59:35.303Z,7.02
2022-12-31T17:01:32.792Z,6.99
2022-12-31T17:03:32.801Z,7.04
2022-12-31T17:05:32.799Z,7.04
2022-12-31T17:07:32.769Z,6.94
2022-12-31T17:09:32.727Z,6.84
2022-12-31T17:12:03.469Z,6.84
2022-12-31T17:14:03.527Z,6.85
2022-12-31T17:16:03.588Z,6.87
2022-12-31T17:18:03.512Z,6.9
2022-12-31T17:20:03.513Z,6.95
2022-12-31T17:22:03.583Z,7.01
2022-12-31T17:24:03.720Z,7.03
2022-12-31T17:27:26.952Z,6.9
2022-12-31T17:29:26.919Z,6.83
2022-12-31T17:31:26.955Z,6.78
2022-12-31T17:33:26.858Z,6.78
2022-12-31T17:35:26.835Z,6.8
2022-12-31T17:37:26.883Z,6.81
2022-12-31T17:39:26.845Z,6.75
2022-12-31T17:42:14.905Z,6.75
2022-12-31T17:44:14.863Z,6.68
2022-12-31T17:46:14.901Z,6.58
2022-12-31T17:48:14.879Z,6.62
2022-12-31T17:50:14.831Z,6.56
2022-12-31T17:52:14.884Z,6.63
2022-12-31T17:54:14.842Z,6.63
2022-12-31T17:57:39.557Z,6.55
2022-12-31T17:59:39.512Z,6.54
2022-12-31T18:01:39.691Z,6.5
2022-12-31T18:03:39.602Z,6.47
2022-12-31T18:05:39.535Z,6.41
2022-12-31T18:07:39.523Z,6.44
2022-12-31T18:09:39.531Z,6.42
2022-12-31T18:13:11.086Z,6.24
2022-12-31T18:15:11.102Z,6.26
2022-12-31T18:17:11.282Z,6.31
2022-12-31T18:19:18.621Z,6.25
2022-12-31T18:21:11.087Z,6.39
2022-12-31T18:23:11.066Z,6.4
2022-12-31T18:25:11.089Z,6.35
2022-12-31T18:28:32.001Z,6.27
2022-12-31T18:30:32.004Z,6.2
2022-12-31T18:32:32.027Z,6.1
2022-12-31T18:34:32.041Z,6.14
2022-12-31T18:36:32.020Z,6.11
2022-12-31T18:38:32.041Z,6.17
2022-12-31T18:40:32.203Z,6.22
2022-12-31T18:43:01.202Z,6.18
2022-12-31T18:44:57.066Z,6.2
2022-12-31T18:46:57.232Z,6.2
2022-12-31T18:48:57.563Z,6.13
2022-12-31T18:50:56.999Z,6.03
2022-12-31T18:52:57.032Z,5.92
2022-12-31T18:54:57.032Z,6.04
2022-12-31T18:58:20.092Z,5.95
2022-12-31T19:00:20.129Z,5.94
2022-12-31T19:02:20.182Z,5.88
2022-12-31T19:04:26.869Z,5.85
2022-12-31T19:06:20.183Z,5.91
2022-12-31T19:08:20.095Z,5.93
2022-12-31T19:10:20.108Z,5.89
2022-12-31T19:13:42.501Z,5.88
2022-12-31T19:15:42.570Z,5.87
2022-12-31T19:17:42.491Z,5.73
2022-12-31T19:19:42.537Z,5.78
2022-12-31T19:21:42.545Z,5.74
2022-12-31T19:23:42.546Z,5.66
2022-12-31T19:25:42.759Z,5.64
2022-12-31T19:28:14.352Z,5.67
2022-12-31T19:30:14.147Z,5.72
2022-12-31T19:32:14.144Z,5.55
2022-12-31T19:34:14.094Z,5.55
2022-12-31T19:36:14.136Z,5.6
2022-12-31T19:38:14.128Z,5.57
2022-12-31T19:40:14.120Z,5.64
2022-12-31T19:42:14.053Z,5.6
2022-12-31T19:43:55.411Z,5.62
2022-12-31T19:45:55.458Z,5.56
2022-12-31T19:47:55.370Z,5.51
2022-12-31T19:49:55.341Z,5.31
2022-12-31T19:51:55.404Z,5.41
2022-12-31T19:53:55.358Z,5.4
2022-12-31T19:55:55.425Z,5.42
2022-12-31T19:59:15.252Z,5.31
2022-12-31T20:01:15.223Z,5.28
2022-12-31T20:03:15.221Z,5.31
2022-12-31T20:05:15.099Z,5.3
2022-12-31T20:07:15.108Z,5.25
2022-12-31T20:09:15.095Z,5.26
2022-12-31T20:11:15.124Z,5.26
2022-12-31T20:14:37.435Z,5.19
2022-12-31T20:16:37.591Z,5.19
2022-12-31T20:18:37.455Z,5.16
2022-12-31T20:20:37.429Z,5.12
2022-12-31T20:22:37.437Z,5.16
2022-12-31T20:24:37.477Z,5.26
2022-12-31T20:26:37.418Z,5.23
2022-12-31T20:29:17.002Z,5.13
2022-12-31T20:31:17.050Z,5.1
2022-12-31T20:33:19.131Z,5.09
2022-12-31T20:35:17.033Z,5.15
2022-12-31T20:37:16.991Z,5.13
2022-12-31T20:39:16.980Z,5.01
2022-12-31T20:41:16.985Z,5.02
2022-12-31T20:44:27.816Z,4.95
2022-12-31T20:46:27.897Z,4.93
2022-12-31T20:48:27.778Z,4.94
2022-12-31T20:50:27.825Z,4.91
2022-12-31T20:52:27.764Z,4.91
2022-12-31T20:54:27.823Z,4.87
2022-12-31T20:56:27.781Z,4.79
2022-12-31T20:59:42.314Z,4.83
2022-12-31T21:02:19.139Z,4.86
2022-12-31T21:05:42.374Z,4.71
2022-12-31T21:07:42.264Z,4.73
2022-12-31T21:09:42.307Z,4.71
2022-12-31T21:11:42.291Z,4.67
2022-12-31T21:14:34.239Z,4.63
2022-12-31T21:16:34.215Z,4.59
2022-12-31T21:18:34.339Z,4.56
2022-12-31T21:20:33.997Z,4.68
2022-12-31T21:22:33.959Z,4.7
2022-12-31T21:24:34.015Z,4.56
2022-12-31T21:26:33.985Z,4.4
2022-12-31T21:30:26.594Z,4.54
2022-12-31T21:32:26.519Z,4.58
2022-12-31T21:34:26.591Z,4.52
2022-12-31T21:36:26.524Z,4.57
2022-12-31T21:38:26.518Z,4.53
2022-12-31T21:40:26.561Z,4.54
2022-12-31T21:42:26.554Z,4.6
2022-12-31T21:45:31.957Z,4.56
2022-12-31T21:47:38.478Z,4.48
2022-12-31T21:49:31.935Z,4.48
2022-12-31T21:51:31.914Z,4.4
2022-12-31T21:53:36.496Z,4.38
2022-12-31T21:55:31.949Z,4.28
2022-12-31T21:57:41.520Z,4.29
2022-12-31T22:00:53.684Z,4.32
2022-12-31T22:02:59.051Z,4.35
2022-12-31T22:05:02.500Z,4.34
2022-12-31T22:06:53.651Z,4.28
2022-12-31T22:08:53.666Z,4.32
2022-12-31T22:10:53.648Z,4.33
2022-12-31T22:12:53.646Z,4.3
2022-12-31T22:15:47.446Z,4.14
2022-12-31T22:17:47.517Z,4.19
2022-12-31T22:20:08.895Z,4.22
2022-12-31T22:21:47.374Z,4.19
2022-12-31T22:23:47.568Z,4.19
2022-12-31T22:25:47.440Z,4.16
2022-12-31T22:28:04.380Z,4.12
2022-12-31T22:30:40.887Z,4.1
2022-12-31T22:32:40.875Z,4.03
2022-12-31T22:34:41.489Z,3.93
2022-12-31T22:36:40.907Z,4.02
2022-12-31T22:38:40.825Z,4.04
2022-12-31T22:40:40.881Z,4.03
2022-12-31T22:42:40.876Z,3.99
2022-12-31T22:45:55.880Z,3.93
2022-12-31T22:47:55.942Z,3.84
2022-12-31T22:49:55.942Z,3.96
2022-12-31T22:51:59.773Z,3.83
2022-12-31T22:53:55.899Z,3.82
2022-12-31T22:55:55.891Z,3.85
2022-12-31T22:57:55.892Z,3.89
2022-12-31T23:01:02.465Z,3.87
2022-12-31T23:03:02.423Z,3.82
2022-12-31T23:05:15.016Z,3.85
2022-12-31T23:07:02.411Z,3.78
2022-12-31T23:09:02.395Z,3.73
2022-12-31T23:11:02.428Z,3.76
2022-12-31T23:13:02.469Z,3.76
2022-12-31T23:16:38.858Z,3.7
2022-12-31T23:18:38.750Z,3.67
2022-12-31T23:20:38.788Z,3.63
2022-12-31T23:22:38.761Z,3.6
2022-12-31T23:24:38.736Z,3.58
2022-12-31T23:26:38.722Z,3.58
2022-12-31T23:28:38.736Z,3.58
2022-12-31T23:30:54.913Z,3.57
2022-12-31T23:32:55.013Z,3.5
2022-12-31T23:34:54.908Z,3.37
2022-12-31T23:36:54.956Z,3.49
2022-12-31T23:38:54.922Z,3.49
2022-12-31T23:40:54.907Z,3.42
2022-12-31T23:42:54.897Z,3.4
2022-12-31T23:44:54.904Z,3.44
2022-12-31T23:46:27.471Z,3.51
2022-12-31T23:48:27.411Z,3.38
2022-12-31T23:50:27.368Z,3.39
2022-12-31T23:52:27.460Z,3.38
2022-12-31T23:54:27.382Z,3.28
2022-12-31T23:56:27.372Z,3.26
2022-12-31T23:58:27.366Z,3.23
